createdAt,value
2022-09-15T00:00:28.410Z,65.99
2022-09-15T00:02:54.965Z,66.08
2022-09-15T00:05:21.592Z,66.50
2022-09-15T00:07:48.368Z,66.60
2022-09-15T00:10:15.063Z,66.22
2022-09-15T00:12:41.639Z,66.34
2022-09-15T00:15:12.050Z,66.56
2022-09-15T00:17:38.577Z,67.46
2022-09-15T00:20:07.050Z,67.00
2022-09-15T00:22:33.674Z,66.94
2022-09-15T00:25:00.199Z,66.68
2022-09-15T00:27:26.725Z,66.65
2022-09-15T00:29:53.295Z,66.72
2022-09-15T00:32:19.808Z,67.17
2022-09-15T00:34:46.346Z,66.77
2022-09-15T00:37:13.014Z,66.93
2022-09-15T00:39:39.675Z,66.79
2022-09-15T00:42:06.301Z,66.56
2022-09-15T00:44:35.619Z,66.22
2022-09-15T00:47:18.627Z,66.60
2022-09-15T00:49:48.423Z,66.70
2022-09-15T00:52:25.314Z,67.08
2022-09-15T00:55:00.694Z,66.50
2022-09-15T00:57:44.370Z,66.66
2022-09-15T01:00:14.504Z,66.12
2022-09-15T01:02:43.169Z,66.25
2022-09-15T01:05:12.617Z,66.57
2022-09-15T01:07:44.604Z,66.30
2022-09-15T01:10:15.907Z,66.63
2022-09-15T01:12:42.786Z,67.17
2022-09-15T01:15:09.379Z,66.61
2022-09-15T01:17:50.666Z,67.00
2022-09-15T01:20:40.358Z,66.29
2022-09-15T01:23:23.788Z,65.85
2022-09-15T01:26:25.368Z,66.05
2022-09-15T01:29:06.756Z,65.77
2022-09-15T01:32:05.534Z,65.80
2022-09-15T01:34:44.750Z,65.46
2022-09-15T01:37:20.229Z,65.22
2022-09-15T01:39:51.470Z,64.75
2022-09-15T01:42:18.549Z,65.07
2022-09-15T01:45:00.090Z,65.64
2022-09-15T01:47:29.442Z,65.65
2022-09-15T01:50:05.947Z,65.43
2022-09-15T01:52:33.608Z,65.15
2022-09-15T01:55:07.733Z,65.02
2022-09-15T01:57:34.327Z,65.80
2022-09-15T02:00:01.142Z,66.11
2022-09-15T02:02:37.745Z,66.15
2022-09-15T02:05:20.704Z,65.89
2022-09-15T02:07:58.973Z,65.56
2022-09-15T02:10:55.897Z,65.53
2022-09-15T02:13:34.045Z,65.46
2022-09-15T02:16:00.893Z,65.23
2022-09-15T02:18:45.219Z,65.15
2022-09-15T02:21:40.468Z,64.89
2022-09-15T02:24:19.119Z,65.54
2022-09-15T02:26:49.462Z,65.53
2022-09-15T02:29:19.302Z,65.77
2022-09-15T02:31:47.509Z,66.11
2022-09-15T02:34:21.060Z,67.40
2022-09-15T02:36:49.890Z,66.55
2022-09-15T02:39:19.966Z,66.93
2022-09-15T02:41:46.928Z,66.87
2022-09-15T02:44:13.687Z,66.36
2022-09-15T02:46:40.514Z,66.54
2022-09-15T02:49:07.661Z,66.76
2022-09-15T02:51:34.223Z,65.96
2022-09-15T02:54:00.763Z,65.97
2022-09-15T02:56:27.303Z,65.91
2022-09-15T02:58:53.865Z,64.99
2022-09-15T03:01:20.506Z,64.57
2022-09-15T03:03:47.180Z,63.76
2022-09-15T03:06:17.420Z,63.94
2022-09-15T03:09:05.205Z,64.24
2022-09-15T03:11:32.499Z,64.44
2022-09-15T03:14:01.733Z,64.55
2022-09-15T03:16:30.956Z,64.60
2022-09-15T03:18:59.476Z,65.56
2022-09-15T03:21:27.497Z,65.86
2022-09-15T03:23:54.054Z,65.95
2022-09-15T03:26:20.612Z,65.94
2022-09-15T03:28:47.196Z,65.37
2022-09-15T03:31:13.850Z,65.41
2022-09-15T03:33:40.436Z,65.25
2022-09-15T03:36:07.658Z,65.76
2022-09-15T03:38:34.211Z,65.83
2022-09-15T03:41:07.668Z,65.72
2022-09-15T03:43:35.401Z,65.61
2022-09-15T03:46:04.526Z,65.75
2022-09-15T03:48:32.837Z,64.92
2022-09-15T03:50:59.839Z,64.93
2022-09-15T03:53:26.594Z,65.60
2022-09-15T03:55:53.522Z,65.53
2022-09-15T03:58:20.108Z,65.67
2022-09-15T04:00:47.031Z,66.28
2022-09-15T04:03:13.909Z,66.84
2022-09-15T04:05:41.904Z,66.64
2022-09-15T04:08:12.011Z,66.22
2022-09-15T04:10:39.658Z,66.59
2022-09-15T04:13:06.309Z,66.92
2022-09-15T04:15:32.841Z,67.46
2022-09-15T04:17:59.721Z,68.03
2022-09-15T04:20:26.343Z,68.05
2022-09-15T04:22:52.925Z,68.50
2022-09-15T04:25:19.518Z,68.09
2022-09-15T04:27:46.212Z,68.32
2022-09-15T04:30:12.888Z,68.31
2022-09-15T04:32:39.737Z,68.24
2022-09-15T04:35:06.731Z,68.95
2022-09-15T04:37:33.366Z,69.36
2022-09-15T04:40:00.010Z,68.79
2022-09-15T04:42:27.406Z,68.97
2022-09-15T04:44:53.940Z,69.05
2022-09-15T04:47:20.730Z,68.77
2022-09-15T04:49:47.302Z,68.14
2022-09-15T04:52:13.856Z,68.64
2022-09-15T04:54:40.461Z,68.40
2022-09-15T04:57:07.072Z,67.77
2022-09-15T04:59:33.713Z,67.87
2022-09-15T05:02:00.385Z,67.44
2022-09-15T05:04:27.101Z,67.11
2022-09-15T05:06:54.943Z,67.73
2022-09-15T05:09:21.577Z,68.24
2022-09-15T05:11:48.133Z,67.73
2022-09-15T05:14:14.681Z,68.54
2022-09-15T05:16:41.346Z,68.73
2022-09-15T05:19:10.159Z,69.03
2022-09-15T05:21:36.685Z,70.17
2022-09-15T05:24:03.485Z,70.79
2022-09-15T05:26:30.135Z,70.63
2022-09-15T05:28:57.627Z,70.80
2022-09-15T05:31:27.333Z,71.33
2022-09-15T05:33:54.770Z,72.18
2022-09-15T05:36:25.063Z,71.89
2022-09-15T05:38:53.700Z,72.37
2022-09-15T05:41:20.812Z,73.29
2022-09-15T05:43:48.795Z,73.76
2022-09-15T05:46:17.347Z,74.65
2022-09-15T05:48:44.992Z,73.42
2022-09-15T05:51:12.035Z,73.98
2022-09-15T05:53:39.328Z,73.76
2022-09-15T05:56:09.895Z,73.97
2022-09-15T05:58:39.502Z,73.39
2022-09-15T06:01:08.627Z,74.02
2022-09-15T06:03:35.886Z,74.77
2022-09-15T06:06:04.245Z,74.15
2022-09-15T06:08:36.366Z,73.76
2022-09-15T06:11:09.056Z,73.05
2022-09-15T06:13:36.959Z,72.89
2022-09-15T06:16:09.388Z,72.39
2022-09-15T06:18:37.703Z,71.70
2022-09-15T06:21:12.759Z,72.18
2022-09-15T06:23:40.345Z,71.97
2022-09-15T06:26:09.752Z,73.26
2022-09-15T06:28:36.460Z,72.98
2022-09-15T06:31:03.651Z,72.52
2022-09-15T06:33:30.251Z,72.20
2022-09-15T06:35:56.922Z,73.45
2022-09-15T06:38:23.463Z,73.69
2022-09-15T06:40:58.130Z,72.59
2022-09-15T06:43:25.251Z,72.54
2022-09-15T06:45:52.266Z,73.54
2022-09-15T06:48:24.873Z,72.49
2022-09-15T06:50:55.654Z,72.80
2022-09-15T06:53:22.708Z,72.46
2022-09-15T06:55:49.837Z,73.22
2022-09-15T06:58:16.607Z,72.90
2022-09-15T07:00:43.214Z,72.22
2022-09-15T07:03:09.867Z,72.74
2022-09-15T07:05:36.641Z,72.75
2022-09-15T07:08:03.298Z,72.02
2022-09-15T07:10:29.882Z,71.66
2022-09-15T07:12:56.500Z,71.31
2022-09-15T07:15:24.901Z,72.58
2022-09-15T07:17:51.465Z,72.27
2022-09-15T07:20:17.987Z,72.51
2022-09-15T07:22:44.507Z,73.16
2022-09-15T07:25:11.064Z,72.99
2022-09-15T07:27:37.591Z,73.70
2022-09-15T07:30:08.471Z,73.01
2022-09-15T07:32:35.111Z,72.81
2022-09-15T07:35:02.308Z,73.28
2022-09-15T07:37:28.893Z,73.50
2022-09-15T07:39:55.545Z,72.07
2022-09-15T07:42:22.125Z,72.81
2022-09-15T07:44:48.677Z,73.10
2022-09-15T07:47:15.190Z,73.13
2022-09-15T07:49:42.169Z,72.55
2022-09-15T07:52:08.975Z,72.46
2022-09-15T07:54:35.881Z,72.63
2022-09-15T07:57:02.501Z,72.47
2022-09-15T07:59:29.053Z,72.17
2022-09-15T08:01:55.677Z,72.31
2022-09-15T08:04:22.288Z,73.26
2022-09-15T08:06:48.876Z,73.36
2022-09-15T08:09:17.621Z,73.87
2022-09-15T08:11:44.416Z,74.33
2022-09-15T08:14:10.996Z,74.35
2022-09-15T08:16:38.579Z,74.74
2022-09-15T08:19:05.357Z,74.82
2022-09-15T08:21:31.949Z,75.58
2022-09-15T08:23:59.995Z,75.30
2022-09-15T08:26:28.398Z,74.99
2022-09-15T08:28:54.936Z,75.98
2022-09-15T08:31:23.956Z,75.11
2022-09-15T08:33:53.023Z,75.46
2022-09-15T08:36:20.234Z,75.71
2022-09-15T08:38:47.030Z,75.10
2022-09-15T08:41:25.639Z,74.26
2022-09-15T08:43:57.526Z,74.46
2022-09-15T08:46:32.572Z,74.05
2022-09-15T08:49:06.895Z,73.95
2022-09-15T08:51:44.804Z,73.50
2022-09-15T08:54:18.539Z,74.09
2022-09-15T08:56:45.623Z,73.84
2022-09-15T08:59:14.863Z,73.98
2022-09-15T09:02:19.042Z,73.41
2022-09-15T09:05:16.423Z,72.68
2022-09-15T09:08:09.959Z,72.72
2022-09-15T09:10:54.656Z,72.14
2022-09-15T09:13:35.273Z,71.48
2022-09-15T09:16:11.201Z,71.13
2022-09-15T09:18:58.150Z,70.65
2022-09-15T09:21:31.048Z,71.24
2022-09-15T09:24:06.944Z,71.27
2022-09-15T09:26:36.401Z,71.76
2022-09-15T09:29:12.657Z,71.91
2022-09-15T09:31:40.771Z,71.63
2022-09-15T09:34:15.769Z,71.19
2022-09-15T09:36:42.772Z,71.52
2022-09-15T09:39:15.080Z,71.62
2022-09-15T09:41:42.389Z,71.76
2022-09-15T09:44:14.654Z,71.57
2022-09-15T09:46:41.758Z,71.60
2022-09-15T09:49:18.394Z,72.37
2022-09-15T09:52:02.123Z,71.72
2022-09-15T09:54:31.076Z,71.94
2022-09-15T09:57:22.740Z,71.86
2022-09-15T09:59:50.880Z,71.77
2022-09-15T10:02:19.131Z,71.48
2022-09-15T10:05:08.621Z,71.79
2022-09-15T10:07:43.560Z,71.25
2022-09-15T10:10:20.869Z,70.61
2022-09-15T10:12:48.096Z,71.46
2022-09-15T10:15:23.053Z,71.36
2022-09-15T10:17:51.169Z,70.80
2022-09-15T10:20:32.156Z,70.85
2022-09-15T10:23:04.364Z,70.82
2022-09-15T10:25:57.606Z,70.82
2022-09-15T10:28:26.131Z,70.40
2022-09-15T10:31:03.791Z,70.72
2022-09-15T10:33:35.978Z,69.70
2022-09-15T10:36:07.071Z,69.93
2022-09-15T10:38:53.361Z,70.67
2022-09-15T10:41:42.315Z,68.96
2022-09-15T10:44:20.893Z,68.96
2022-09-15T10:47:11.943Z,68.84
2022-09-15T10:50:07.252Z,69.30
2022-09-15T10:53:10.937Z,68.54
2022-09-15T10:55:52.591Z,68.73
2022-09-15T10:58:55.780Z,68.76
2022-09-15T11:01:28.258Z,69.12
2022-09-15T11:04:12.884Z,69.38
2022-09-15T11:06:54.914Z,69.29
2022-09-15T11:09:25.920Z,68.96
2022-09-15T11:12:04.519Z,68.93
2022-09-15T11:14:58.392Z,69.07
2022-09-15T11:17:55.139Z,69.03
2022-09-15T11:20:59.567Z,69.13
2022-09-15T11:23:35.100Z,69.44
2022-09-15T11:26:13.865Z,69.50
2022-09-15T11:28:50.390Z,69.31
2022-09-15T11:31:24.272Z,68.85
2022-09-15T11:33:55.170Z,69.40
2022-09-15T11:36:43.283Z,69.03
2022-09-15T11:39:20.588Z,68.92
2022-09-15T11:41:56.414Z,68.94
2022-09-15T11:44:39.184Z,69.04
2022-09-15T11:47:09.924Z,69.13
2022-09-15T11:49:51.544Z,69.30
2022-09-15T11:52:39.568Z,69.42
2022-09-15T11:55:18.222Z,70.07
2022-09-15T11:57:50.875Z,69.92
2022-09-15T12:00:17.543Z,71.13
2022-09-15T12:03:07.281Z,71.29
2022-09-15T12:05:43.155Z,71.59
2022-09-15T12:08:24.629Z,71.44
2022-09-15T12:10:55.486Z,71.28
2022-09-15T12:13:25.021Z,71.78
2022-09-15T12:15:53.507Z,71.30
2022-09-15T12:18:40.799Z,71.29
2022-09-15T12:21:45.666Z,70.59
2022-09-15T12:24:22.782Z,69.65
2022-09-15T12:26:49.995Z,69.47
2022-09-15T12:29:22.446Z,68.30
2022-09-15T12:31:49.023Z,67.66
2022-09-15T12:34:35.558Z,68.67
2022-09-15T12:37:12.588Z,69.22
2022-09-15T12:39:43.302Z,70.03
2022-09-15T12:42:31.180Z,70.90
2022-09-15T12:45:22.585Z,70.59
2022-09-15T12:47:51.633Z,70.59
2022-09-15T12:50:37.794Z,70.80
2022-09-15T12:53:23.446Z,69.61
2022-09-15T12:56:16.585Z,69.08
2022-09-15T12:58:49.388Z,68.57
2022-09-15T13:01:19.384Z,68.91
2022-09-15T13:03:46.419Z,68.80
2022-09-15T13:06:26.249Z,68.74
2022-09-15T13:09:01.877Z,69.49
2022-09-15T13:11:37.554Z,69.06
2022-09-15T13:14:04.433Z,67.83
2022-09-15T13:16:53.782Z,69.42
2022-09-15T13:19:41.495Z,69.92
2022-09-15T13:22:11.175Z,68.95
2022-09-15T13:25:08.860Z,69.12
2022-09-15T13:27:40.358Z,68.91
2022-09-15T13:30:29.083Z,69.92
2022-09-15T13:33:17.503Z,70.04
2022-09-15T13:35:59.213Z,68.81
2022-09-15T13:38:50.137Z,70.51
2022-09-15T13:41:34.065Z,69.86
2022-09-15T13:44:10.246Z,69.90
2022-09-15T13:47:01.569Z,69.03
2022-09-15T13:49:43.187Z,67.97
2022-09-15T13:52:18.757Z,67.87
2022-09-15T13:55:26.313Z,68.86
2022-09-15T14:00:56.037Z,67.77
2022-09-15T14:03:28.574Z,69.18
2022-09-15T14:05:56.277Z,69.58
2022-09-15T14:08:33.393Z,69.87
2022-09-15T14:11:04.353Z,69.26
2022-09-15T14:13:31.469Z,69.38
2022-09-15T14:16:02.967Z,69.52
2022-09-15T14:18:31.352Z,68.10
2022-09-15T14:21:03.123Z,68.16
2022-09-15T14:23:30.604Z,68.45
2022-09-15T14:26:00.285Z,68.48
2022-09-15T14:28:32.197Z,68.78
2022-09-15T14:31:02.666Z,68.99
2022-09-15T14:33:37.816Z,67.47
2022-09-15T14:36:22.762Z,66.58
2022-09-15T14:39:11.190Z,66.46
2022-09-15T14:41:40.530Z,67.49
2022-09-15T14:47:27.962Z,69.21
2022-09-15T14:50:15.917Z,68.57
2022-09-15T14:53:20.963Z,66.99
2022-09-15T14:55:59.058Z,66.18
2022-09-15T14:58:37.644Z,66.23
2022-09-15T15:01:07.908Z,67.18
2022-09-15T15:03:55.978Z,67.70
2022-09-15T15:06:28.886Z,66.33
2022-09-15T15:09:03.328Z,67.23
2022-09-15T15:11:33.165Z,66.76
2022-09-15T15:14:00.345Z,66.26
2022-09-15T15:16:29.907Z,64.92
2022-09-15T15:18:57.289Z,65.62
2022-09-15T15:21:45.111Z,65.49
2022-09-15T15:24:14.892Z,65.05
2022-09-15T15:26:43.958Z,64.88
2022-09-15T15:29:34.976Z,65.21
2022-09-15T15:32:06.228Z,65.61
2022-09-15T15:34:33.199Z,65.68
2022-09-15T15:37:29.411Z,64.69
2022-09-15T15:39:58.520Z,63.86
2022-09-15T15:42:26.592Z,64.27
2022-09-15T15:45:25.934Z,63.67
2022-09-15T15:47:53.305Z,63.01
2022-09-15T15:50:25.343Z,63.38
2022-09-15T15:52:52.542Z,63.27
2022-09-15T15:55:21.676Z,62.98
2022-09-15T15:57:58.458Z,62.67
2022-09-15T16:00:48.200Z,63.36
2022-09-15T16:03:16.216Z,63.88
2022-09-15T16:05:45.429Z,61.81
2022-09-15T16:08:26.470Z,63.06
2022-09-15T16:10:54.466Z,62.68
2022-09-15T16:13:22.015Z,63.50
2022-09-15T16:15:49.250Z,63.76
2022-09-15T16:18:15.882Z,62.18
2022-09-15T16:20:42.778Z,60.99
2022-09-15T16:23:17.794Z,60.65
2022-09-15T16:26:03.479Z,61.22
2022-09-15T16:28:30.337Z,61.41
2022-09-15T16:30:57.262Z,61.24
2022-09-15T16:33:24.939Z,61.33
2022-09-15T16:36:08.875Z,60.93
2022-09-15T16:38:36.767Z,61.54
2022-09-15T16:41:06.317Z,61.36
2022-09-15T16:43:32.902Z,61.57
2022-09-15T16:45:59.584Z,61.52
2022-09-15T16:48:27.249Z,61.15
2022-09-15T16:51:19.529Z,60.19
2022-09-15T16:53:40.791Z,61.16
2022-09-15T16:56:10.636Z,60.42
2022-09-15T16:58:37.713Z,60.40
2022-09-15T17:01:04.967Z,60.29
2022-09-15T17:03:31.761Z,60.18
2022-09-15T17:06:00.883Z,60.30
2022-09-15T17:08:32.016Z,60.12
2022-09-15T17:10:59.848Z,60.36
2022-09-15T17:13:30.584Z,60.28
2022-09-15T17:15:58.559Z,60.32
2022-09-15T17:18:25.854Z,60.24
2022-09-15T17:20:53.121Z,60.22
2022-09-15T17:23:46.985Z,59.93
2022-09-15T17:26:23.471Z,60.89
2022-09-15T17:28:52.273Z,60.70
2022-09-15T17:31:21.673Z,62.29
2022-09-15T17:33:49.990Z,63.11
2022-09-15T17:36:17.321Z,62.54
2022-09-15T17:38:45.307Z,61.78
2022-09-15T17:41:17.402Z,61.05
2022-09-15T17:43:44.016Z,60.55
2022-09-15T17:46:10.737Z,60.33
2022-09-15T17:48:38.941Z,60.65
2022-09-15T17:51:12.870Z,60.45
2022-09-15T17:53:39.404Z,60.53
2022-09-15T17:56:06.161Z,60.85
2022-09-15T17:58:33.330Z,61.09
2022-09-15T18:01:00.285Z,60.86
2022-09-15T18:03:35.075Z,60.63
2022-09-15T18:06:08.357Z,60.49
2022-09-15T18:08:38.598Z,60.20
2022-09-15T18:11:06.416Z,60.42
2022-09-15T18:13:34.050Z,60.40
2022-09-15T18:16:12.344Z,61.48
2022-09-15T18:18:40.588Z,61.96
2022-09-15T18:21:21.259Z,61.96
2022-09-15T18:23:47.998Z,61.81
2022-09-15T18:26:14.549Z,61.35
2022-09-15T18:28:41.088Z,61.58
2022-09-15T18:31:08.806Z,61.58
2022-09-15T18:33:35.394Z,61.65
2022-09-15T18:36:02.078Z,61.14
2022-09-15T18:38:28.693Z,61.24
2022-09-15T18:40:56.551Z,61.51
2022-09-15T18:43:26.381Z,62.22
2022-09-15T18:45:58.048Z,62.13
2022-09-15T18:48:24.751Z,61.77
2022-09-15T18:50:51.624Z,62.09
2022-09-15T18:53:18.213Z,62.31
2022-09-15T18:55:44.941Z,63.11
2022-09-15T18:58:11.849Z,63.23
2022-09-15T19:00:38.992Z,65.10
2022-09-15T19:03:09.651Z,64.38
2022-09-15T19:05:37.279Z,64.25
2022-09-15T19:08:04.501Z,62.95
2022-09-15T19:10:31.206Z,63.04
2022-09-15T19:12:57.801Z,63.08
2022-09-15T19:15:24.424Z,63.35
2022-09-15T19:17:51.040Z,63.33
2022-09-15T19:20:18.327Z,63.37
2022-09-15T19:22:45.980Z,63.61
2022-09-15T19:25:13.412Z,63.66
2022-09-15T19:27:41.261Z,63.41
2022-09-15T19:30:10.117Z,63.61
2022-09-15T19:32:37.846Z,64.99
2022-09-15T19:35:05.163Z,64.91
2022-09-15T19:37:31.696Z,63.47
2022-09-15T19:39:58.318Z,63.63
2022-09-15T19:42:24.872Z,63.29
2022-09-15T19:44:51.563Z,64.50
2022-09-15T19:47:18.153Z,65.17
2022-09-15T19:49:44.845Z,65.54
2022-09-15T19:52:12.756Z,65.96
2022-09-15T19:54:39.361Z,65.26
2022-09-15T19:57:06.140Z,64.50
2022-09-15T19:59:32.777Z,63.51
2022-09-15T20:02:00.973Z,64.32
2022-09-15T20:04:28.432Z,64.64
2022-09-15T20:06:55.210Z,63.67
2022-09-15T20:09:22.438Z,64.21
2022-09-15T20:11:49.105Z,63.70
2022-09-15T20:14:16.021Z,62.62
2022-09-15T20:16:42.665Z,62.66
2022-09-15T20:19:09.299Z,64.29
2022-09-15T20:21:49.712Z,63.73
2022-09-15T20:24:17.525Z,64.06
2022-09-15T20:26:44.118Z,64.53
2022-09-15T20:29:10.866Z,64.51
2022-09-15T20:31:37.421Z,65.10
2022-09-15T20:34:03.977Z,65.57
2022-09-15T20:36:33.444Z,65.23
2022-09-15T20:39:03.285Z,66.24
2022-09-15T20:41:32.029Z,66.32
2022-09-15T20:43:59.193Z,65.92
2022-09-15T20:46:26.464Z,66.35
2022-09-15T20:48:53.294Z,66.14
2022-09-15T20:51:25.534Z,66.18
2022-09-15T20:53:54.655Z,65.91
2022-09-15T20:56:25.350Z,65.45
2022-09-15T20:58:53.763Z,64.96
2022-09-15T21:01:22.905Z,66.11
2022-09-15T21:03:49.795Z,66.16
2022-09-15T21:06:24.000Z,65.69
2022-09-15T21:08:51.153Z,66.85
2022-09-15T21:11:20.188Z,67.71
2022-09-15T21:13:48.084Z,66.75
2022-09-15T21:16:20.392Z,67.44
2022-09-15T21:18:47.860Z,66.39
2022-09-15T21:21:16.927Z,66.31
2022-09-15T21:23:46.082Z,65.14
2022-09-15T21:26:21.068Z,63.57
2022-09-15T21:28:48.716Z,63.73
2022-09-15T21:31:26.957Z,63.21
2022-09-15T21:33:54.412Z,63.02
2022-09-15T21:36:26.887Z,64.71
2022-09-15T21:38:56.216Z,63.14
2022-09-15T21:41:25.994Z,63.04
2022-09-15T21:43:54.837Z,64.03
2022-09-15T21:46:24.173Z,64.88
2022-09-15T21:48:51.715Z,64.74
2022-09-15T21:51:24.531Z,64.23
2022-09-15T21:53:56.600Z,65.16
2022-09-15T21:56:23.772Z,65.32
2022-09-15T21:58:50.535Z,64.25
2022-09-15T22:01:21.500Z,63.46
2022-09-15T22:03:51.454Z,64.04
2022-09-15T22:06:19.902Z,63.61
2022-09-15T22:08:46.830Z,63.73
2022-09-15T22:11:13.536Z,64.55
2022-09-15T22:13:42.094Z,65.02
2022-09-15T22:16:12.653Z,66.24
2022-09-15T22:18:40.484Z,67.15
2022-09-15T22:21:13.372Z,66.91
2022-09-15T22:23:40.114Z,66.28
2022-09-15T22:26:12.771Z,64.86
2022-09-15T22:28:39.496Z,64.13
2022-09-15T22:31:08.547Z,63.10
2022-09-15T22:33:35.646Z,62.62
2022-09-15T22:36:02.565Z,62.55
2022-09-15T22:38:30.050Z,62.60
2022-09-15T22:41:03.892Z,62.58
2022-09-15T22:43:30.666Z,62.54
2022-09-15T22:45:57.378Z,62.36
2022-09-15T22:48:24.182Z,62.61
2022-09-15T22:50:50.815Z,62.26
2022-09-15T22:53:17.405Z,62.64
2022-09-15T22:55:44.014Z,62.49
2022-09-15T22:58:10.675Z,62.82
2022-09-15T23:00:38.292Z,64.14
2022-09-15T23:03:05.933Z,63.68
2022-09-15T23:05:33.954Z,63.30
2022-09-15T23:08:00.523Z,64.50
2022-09-15T23:10:27.357Z,63.87
2022-09-15T23:12:54.420Z,62.95
2022-09-15T23:15:20.995Z,62.64
2022-09-15T23:17:47.923Z,62.50
2022-09-15T23:20:14.490Z,62.47
2022-09-15T23:22:41.105Z,62.17
2022-09-15T23:25:08.162Z,63.27
2022-09-15T23:27:34.698Z,63.29
2022-09-15T23:30:01.233Z,63.43
2022-09-15T23:32:27.855Z,63.18
2022-09-15T23:34:54.843Z,63.05
2022-09-15T23:37:21.413Z,64.60
2022-09-15T23:39:48.064Z,64.51
2022-09-15T23:42:18.755Z,64.61
2022-09-15T23:44:45.807Z,64.95
2022-09-15T23:47:12.403Z,64.84
2022-09-15T23:49:38.954Z,65.34
2022-09-15T23:52:05.497Z,66.15
2022-09-15T23:54:32.050Z,67.19
2022-09-15T23:56:58.747Z,66.53
2022-09-15T23:59:25.324Z,66.10
